createdAt,value
2022-10-29T00:01:16.611Z,16.58
2022-10-29T00:03:47.241Z,16.81
2022-10-29T00:06:15.974Z,16.87
2022-10-29T00:08:44.396Z,16.94
2022-10-29T00:11:15.674Z,17.09
2022-10-29T00:13:45.061Z,17.09
2022-10-29T00:16:17.212Z,17.13
2022-10-29T00:18:46.013Z,17.14
2022-10-29T00:21:17.479Z,17.15
2022-10-29T00:23:45.828Z,17.04
2022-10-29T00:26:14.747Z,17.00
2022-10-29T00:28:43.958Z,16.98
2022-10-29T00:31:18.840Z,16.96
2022-10-29T00:33:47.844Z,16.96
2022-10-29T00:36:18.413Z,17.00
2022-10-29T00:38:46.959Z,17.02
2022-10-29T00:41:18.381Z,16.89
2022-10-29T00:43:50.788Z,17.06
2022-10-29T00:46:28.172Z,17.14
2022-10-29T00:48:57.830Z,17.13
2022-10-29T00:51:28.582Z,16.54
2022-10-29T00:54:02.670Z,16.94
2022-10-29T00:56:35.489Z,16.75
2022-10-29T00:59:04.353Z,16.72
2022-10-29T01:01:34.085Z,16.68
2022-10-29T01:04:03.116Z,16.66
2022-10-29T01:06:32.688Z,16.61
2022-10-29T01:09:00.973Z,16.73
2022-10-29T01:11:44.945Z,16.70
2022-10-29T01:14:24.400Z,16.63
2022-10-29T01:17:01.335Z,16.67
2022-10-29T01:20:02.200Z,16.62
2022-10-29T01:22:36.436Z,16.55
2022-10-29T01:25:51.619Z,16.46
2022-10-29T01:28:34.754Z,16.54
2022-10-29T01:31:19.234Z,16.55
2022-10-29T01:33:56.506Z,16.65
2022-10-29T01:36:34.853Z,16.71
2022-10-29T01:39:10.639Z,16.80
2022-10-29T01:41:50.607Z,16.80
2022-10-29T01:44:31.287Z,16.88
2022-10-29T01:47:02.285Z,16.74
2022-10-29T01:49:34.381Z,16.51
2022-10-29T01:52:04.789Z,16.54
2022-10-29T01:54:33.174Z,16.46
2022-10-29T01:57:02.164Z,16.38
2022-10-29T01:59:51.304Z,16.38
2022-10-29T02:02:32.114Z,16.26
2022-10-29T02:05:13.444Z,16.29
2022-10-29T02:07:50.953Z,16.34
2022-10-29T02:10:28.829Z,16.29
2022-10-29T02:12:58.842Z,16.28
2022-10-29T02:15:32.997Z,16.24
2022-10-29T02:18:05.325Z,16.25
2022-10-29T02:20:34.172Z,16.30
2022-10-29T02:23:02.552Z,16.27
2022-10-29T02:25:30.861Z,15.98
2022-10-29T02:28:00.560Z,15.57
2022-10-29T02:30:28.854Z,15.85
2022-10-29T02:32:57.425Z,15.86
2022-10-29T02:35:27.364Z,15.76
2022-10-29T02:37:55.599Z,15.83
2022-10-29T02:40:23.820Z,15.87
2022-10-29T02:42:52.066Z,15.88
2022-10-29T02:45:20.305Z,15.88
2022-10-29T02:47:48.575Z,15.78
2022-10-29T02:50:17.008Z,15.84
2022-10-29T02:52:46.643Z,15.99
2022-10-29T02:55:15.053Z,16.04
2022-10-29T02:57:44.760Z,16.09
2022-10-29T03:00:15.067Z,16.20
2022-10-29T03:02:43.353Z,16.22
2022-10-29T03:05:12.178Z,16.09
2022-10-29T03:07:40.443Z,16.34
2022-10-29T03:10:11.208Z,16.31
2022-10-29T03:12:39.288Z,16.34
2022-10-29T03:15:09.019Z,16.32
2022-10-29T03:17:37.319Z,16.18
2022-10-29T03:20:07.322Z,16.02
2022-10-29T03:22:37.720Z,15.99
2022-10-29T03:25:07.097Z,15.96
2022-10-29T03:27:42.801Z,16.09
2022-10-29T03:30:13.485Z,16.18
2022-10-29T03:32:41.753Z,16.12
2022-10-29T03:35:11.450Z,16.05
2022-10-29T03:37:39.852Z,16.05
2022-10-29T03:40:10.189Z,15.88
2022-10-29T03:42:40.807Z,15.68
2022-10-29T03:45:11.798Z,15.10
2022-10-29T03:47:40.084Z,15.66
2022-10-29T03:50:10.118Z,15.60
2022-10-29T03:52:38.473Z,15.43
2022-10-29T03:55:08.573Z,15.56
2022-10-29T03:57:37.029Z,15.56
2022-10-29T04:00:08.235Z,15.59
2022-10-29T04:02:42.281Z,15.68
2022-10-29T04:05:10.859Z,15.72
2022-10-29T04:07:39.133Z,15.68
2022-10-29T04:10:08.268Z,15.66
2022-10-29T04:12:36.481Z,15.73
2022-10-29T04:15:07.503Z,15.81
2022-10-29T04:17:35.860Z,15.84
2022-10-29T04:20:09.962Z,15.92
2022-10-29T04:27:44.771Z,15.89
2022-10-29T04:28:44.488Z,15.76
2022-10-29T04:31:14.373Z,15.75
2022-10-29T04:33:42.737Z,15.74
2022-10-29T04:36:11.789Z,15.71
2022-10-29T04:38:40.039Z,15.69
2022-10-29T04:41:08.348Z,15.63
2022-10-29T04:43:36.591Z,15.65
2022-10-29T04:46:05.157Z,15.54
2022-10-29T04:48:34.847Z,15.68
2022-10-29T04:51:03.277Z,15.69
2022-10-29T04:53:31.574Z,15.74
2022-10-29T04:56:02.182Z,15.71
2022-10-29T04:58:30.346Z,15.65
2022-10-29T05:01:02.895Z,15.56
2022-10-29T05:03:31.418Z,15.97
2022-10-29T05:06:04.307Z,16.18
2022-10-29T05:08:33.186Z,16.31
2022-10-29T05:11:04.024Z,16.27
2022-10-29T05:13:32.416Z,16.41
2022-10-29T05:16:01.265Z,16.59
2022-10-29T05:18:29.725Z,16.68
2022-10-29T05:21:00.154Z,16.80
2022-10-29T05:23:28.531Z,16.88
2022-10-29T05:25:57.348Z,16.79
2022-10-29T05:28:25.950Z,16.88
2022-10-29T05:30:55.092Z,16.52
2022-10-29T05:33:25.918Z,16.43
2022-10-29T05:35:54.277Z,16.69
2022-10-29T05:38:24.058Z,16.82
2022-10-29T05:40:52.271Z,16.78
2022-10-29T05:43:20.543Z,16.93
2022-10-29T05:45:48.814Z,17.03
2022-10-29T05:48:17.066Z,17.07
2022-10-29T05:50:45.726Z,16.88
2022-10-29T05:53:15.740Z,16.71
2022-10-29T05:55:45.397Z,16.58
2022-10-29T05:58:15.421Z,16.35
2022-10-29T06:00:46.434Z,16.56
2022-10-29T06:03:16.880Z,16.61
2022-10-29T06:05:45.803Z,16.56
2022-10-29T06:08:14.179Z,16.53
2022-10-29T06:10:44.068Z,16.40
2022-10-29T06:13:13.557Z,16.11
2022-10-29T06:15:42.161Z,16.17
2022-10-29T06:18:11.318Z,16.27
2022-10-29T06:20:40.451Z,16.35
2022-10-29T06:23:08.998Z,16.32
2022-10-29T06:25:37.366Z,16.59
2022-10-29T06:28:09.097Z,16.68
2022-10-29T06:30:38.262Z,16.58
2022-10-29T06:33:07.012Z,16.56
2022-10-29T06:38:11.087Z,16.73
2022-10-29T06:40:41.054Z,16.63
2022-10-29T06:43:13.069Z,16.76
2022-10-29T06:45:41.457Z,16.71
2022-10-29T06:48:11.560Z,16.65
2022-10-29T06:50:39.813Z,16.86
2022-10-29T06:53:12.606Z,16.77
2022-10-29T06:55:41.506Z,16.46
2022-10-29T06:58:13.977Z,16.75
2022-10-29T07:00:43.103Z,16.69
2022-10-29T07:03:14.490Z,16.47
2022-10-29T07:05:42.869Z,16.11
2022-10-29T07:08:11.928Z,16.03
2022-10-29T07:10:40.856Z,15.82
2022-10-29T07:13:11.620Z,15.84
2022-10-29T07:15:39.884Z,15.58
2022-10-29T07:18:09.695Z,15.86
2022-10-29T07:20:41.014Z,16.02
2022-10-29T07:23:10.109Z,16.12
2022-10-29T07:25:39.897Z,16.13
2022-10-29T07:28:13.050Z,16.11
2022-10-29T07:30:41.609Z,16.11
2022-10-29T07:33:09.949Z,16.11
2022-10-29T07:35:38.566Z,16.18
2022-10-29T07:38:10.883Z,15.40
2022-10-29T07:40:41.109Z,16.30
2022-10-29T07:43:10.839Z,16.35
2022-10-29T07:45:39.080Z,16.45
2022-10-29T07:48:08.810Z,16.42
2022-10-29T07:50:38.539Z,16.57
2022-10-29T07:53:08.128Z,16.66
2022-10-29T07:55:37.015Z,16.84
2022-10-29T07:58:07.545Z,16.89
2022-10-29T08:00:39.174Z,16.92
2022-10-29T08:03:08.331Z,16.90
2022-10-29T08:05:36.712Z,16.96
2022-10-29T08:08:05.608Z,16.46
2022-10-29T08:10:36.008Z,17.12
2022-10-29T08:13:06.349Z,17.09
2022-10-29T08:15:36.972Z,17.04
2022-10-29T08:18:13.038Z,17.25
2022-10-29T08:20:41.419Z,17.31
2022-10-29T08:23:10.008Z,17.69
2022-10-29T08:25:41.552Z,17.90
2022-10-29T08:28:12.498Z,17.91
2022-10-29T08:30:44.023Z,17.89
2022-10-29T08:33:12.822Z,17.75
2022-10-29T08:35:41.104Z,17.97
2022-10-29T08:38:09.392Z,18.00
2022-10-29T08:40:51.591Z,17.73
2022-10-29T08:44:04.300Z,17.53
2022-10-29T08:46:45.403Z,17.51
2022-10-29T08:49:19.780Z,17.64
2022-10-29T08:51:55.455Z,17.64
2022-10-29T08:54:30.937Z,17.57
2022-10-29T08:57:05.695Z,17.55
2022-10-29T08:59:42.135Z,17.50
2022-10-29T09:02:18.427Z,17.41
2022-10-29T09:04:46.922Z,17.46
2022-10-29T09:07:38.757Z,17.57
2022-10-29T09:10:13.804Z,17.58
2022-10-29T09:13:02.602Z,17.44
2022-10-29T09:15:56.383Z,17.47
2022-10-29T09:18:48.825Z,17.47
2022-10-29T09:21:29.526Z,17.41
2022-10-29T09:24:08.706Z,17.52
2022-10-29T09:26:58.613Z,17.47
2022-10-29T09:29:52.809Z,17.39
2022-10-29T09:32:26.155Z,17.63
2022-10-29T09:35:02.464Z,17.72
2022-10-29T09:37:42.555Z,17.57
2022-10-29T09:40:25.727Z,17.97
2022-10-29T09:42:55.314Z,18.04
2022-10-29T09:45:33.404Z,18.02
2022-10-29T09:48:12.526Z,18.15
2022-10-29T09:50:53.821Z,18.23
2022-10-29T09:53:22.245Z,18.45
2022-10-29T09:55:53.629Z,18.55
2022-10-29T09:58:24.335Z,18.18
2022-10-29T10:00:53.118Z,18.87
2022-10-29T10:03:27.880Z,19.29
2022-10-29T10:06:06.847Z,19.42
2022-10-29T10:08:37.320Z,19.29
2022-10-29T10:11:08.067Z,19.40
2022-10-29T10:13:38.453Z,19.21
2022-10-29T10:16:08.062Z,19.20
2022-10-29T10:21:27.312Z,19.29
2022-10-29T10:23:57.638Z,19.39
2022-10-29T10:26:39.435Z,19.66
2022-10-29T10:29:15.091Z,19.89
2022-10-29T10:31:45.381Z,20.07
2022-10-29T10:34:20.662Z,20.18
2022-10-29T10:36:56.420Z,20.31
2022-10-29T10:39:29.356Z,20.59
2022-10-29T10:42:00.275Z,20.41
2022-10-29T10:44:29.578Z,20.54
2022-10-29T10:47:06.595Z,20.53
2022-10-29T10:49:37.449Z,20.51
2022-10-29T10:52:19.847Z,19.37
2022-10-29T10:54:56.542Z,20.05
2022-10-29T10:57:29.381Z,20.01
2022-10-29T11:00:07.941Z,19.96
2022-10-29T11:02:49.410Z,19.94
2022-10-29T11:05:20.673Z,19.98
2022-10-29T11:08:00.329Z,20.12
2022-10-29T11:10:35.974Z,20.15
2022-10-29T11:13:11.130Z,20.24
2022-10-29T11:15:45.514Z,20.34
2022-10-29T11:18:19.993Z,20.39
2022-10-29T11:21:05.391Z,20.49
2022-10-29T11:23:49.430Z,20.64
2022-10-29T11:26:26.615Z,20.70
2022-10-29T11:29:01.663Z,20.87
2022-10-29T11:31:41.304Z,21.07
2022-10-29T11:34:18.169Z,21.11
2022-10-29T11:36:53.443Z,21.13
2022-10-29T11:39:32.090Z,21.24
2022-10-29T11:42:02.400Z,21.22
2022-10-29T11:44:38.522Z,21.37
2022-10-29T11:47:41.526Z,21.67
2022-10-29T11:50:27.246Z,21.83
2022-10-29T11:53:03.572Z,21.92
2022-10-29T11:55:43.354Z,22.18
2022-10-29T11:58:18.769Z,22.17
2022-10-29T12:00:58.860Z,22.23
2022-10-29T12:03:46.890Z,22.06
2022-10-29T12:06:24.146Z,22.26
2022-10-29T12:09:04.877Z,22.44
2022-10-29T12:11:43.537Z,22.45
2022-10-29T12:14:26.314Z,22.54
2022-10-29T12:17:03.674Z,22.55
2022-10-29T12:19:46.593Z,22.12
2022-10-29T12:22:29.759Z,22.63
2022-10-29T12:25:20.335Z,22.53
2022-10-29T12:28:03.925Z,22.61
2022-10-29T12:30:38.732Z,22.89
2022-10-29T12:33:16.854Z,22.88
2022-10-29T12:35:55.556Z,23.07
2022-10-29T12:38:37.811Z,23.07
2022-10-29T12:41:11.025Z,23.21
2022-10-29T12:43:41.561Z,23.20
2022-10-29T12:46:21.615Z,23.22
2022-10-29T12:49:02.268Z,23.16
2022-10-29T12:51:42.676Z,23.15
2022-10-29T12:54:23.417Z,22.82
2022-10-29T12:56:51.547Z,22.72
2022-10-29T12:59:36.601Z,22.95
2022-10-29T13:02:47.121Z,22.77
2022-10-29T13:05:40.465Z,22.78
2022-10-29T13:08:35.087Z,22.84
2022-10-29T13:11:03.775Z,22.83
2022-10-29T13:14:00.497Z,22.98
2022-10-29T13:16:33.110Z,22.92
2022-10-29T13:19:25.120Z,22.97
2022-10-29T13:22:05.577Z,23.00
2022-10-29T13:24:34.181Z,22.69
2022-10-29T13:27:09.613Z,22.48
2022-10-29T13:29:49.430Z,22.76
2022-10-29T13:32:39.535Z,22.58
2022-10-29T13:35:42.370Z,22.65
2022-10-29T13:38:17.107Z,22.55
2022-10-29T13:41:13.154Z,22.56
2022-10-29T13:43:44.918Z,22.47
2022-10-29T13:46:45.532Z,22.39
2022-10-29T13:49:20.603Z,22.41
2022-10-29T13:51:59.156Z,22.39
2022-10-29T13:54:39.711Z,22.28
2022-10-29T13:57:19.759Z,22.36
2022-10-29T13:59:55.323Z,22.45
2022-10-29T14:02:36.747Z,22.43
2022-10-29T14:05:15.483Z,22.40
2022-10-29T14:07:56.260Z,22.53
2022-10-29T14:10:28.110Z,22.55
2022-10-29T14:13:01.905Z,22.66
2022-10-29T14:15:30.273Z,22.84
2022-10-29T14:17:58.517Z,22.68
2022-10-29T14:20:29.811Z,22.70
2022-10-29T14:23:09.143Z,22.84
2022-10-29T14:25:37.885Z,22.85
2022-10-29T14:28:19.141Z,22.93
2022-10-29T14:30:49.513Z,22.86
2022-10-29T14:33:26.476Z,22.93
2022-10-29T14:36:01.990Z,22.96
2022-10-29T14:38:39.517Z,22.83
2022-10-29T14:41:07.873Z,22.67
2022-10-29T14:43:36.764Z,22.50
2022-10-29T14:46:23.560Z,22.32
2022-10-29T14:49:14.028Z,22.31
2022-10-29T14:51:52.370Z,22.20
2022-10-29T14:54:26.723Z,22.04
2022-10-29T14:56:59.394Z,22.27
2022-10-29T14:59:31.144Z,22.04
2022-10-29T15:02:17.265Z,22.13
2022-10-29T15:04:56.123Z,22.21
2022-10-29T15:07:34.657Z,22.27
2022-10-29T15:10:26.402Z,22.07
2022-10-29T15:12:55.373Z,22.19
2022-10-29T15:15:28.269Z,21.99
2022-10-29T15:18:01.737Z,21.68
2022-10-29T15:20:36.990Z,22.13
2022-10-29T15:23:05.899Z,22.14
2022-10-29T15:25:39.282Z,22.24
2022-10-29T15:28:11.942Z,22.30
2022-10-29T15:30:41.218Z,22.32
2022-10-29T15:33:19.161Z,22.40
2022-10-29T15:35:53.668Z,22.36
2022-10-29T15:39:12.929Z,22.34
2022-10-29T15:41:49.255Z,22.37
2022-10-29T15:44:37.142Z,22.48
2022-10-29T15:47:22.382Z,22.39
2022-10-29T15:49:50.720Z,22.42
2022-10-29T15:52:20.285Z,22.26
2022-10-29T15:54:49.069Z,22.24
2022-10-29T15:57:18.917Z,22.02
2022-10-29T15:59:47.240Z,21.97
2022-10-29T16:02:18.519Z,21.86
2022-10-29T16:04:47.038Z,21.62
2022-10-29T16:07:15.803Z,21.65
2022-10-29T16:09:47.896Z,21.52
2022-10-29T16:12:17.782Z,21.42
2022-10-29T16:14:46.271Z,21.74
2022-10-29T16:17:16.676Z,21.71
2022-10-29T16:19:45.281Z,21.55
2022-10-29T16:22:16.550Z,21.84
2022-10-29T16:24:44.871Z,21.58
2022-10-29T16:27:18.824Z,21.77
2022-10-29T16:29:49.581Z,21.81
2022-10-29T16:32:20.831Z,21.63
2022-10-29T16:34:49.291Z,21.77
2022-10-29T16:37:20.364Z,21.91
2022-10-29T16:39:48.745Z,21.99
2022-10-29T16:42:30.386Z,21.94
2022-10-29T16:44:59.042Z,22.00
2022-10-29T16:47:27.488Z,22.06
2022-10-29T16:49:56.201Z,22.02
2022-10-29T16:52:28.846Z,22.07
2022-10-29T16:54:58.101Z,22.16
2022-10-29T16:57:29.425Z,22.13
2022-10-29T16:59:57.714Z,22.16
2022-10-29T17:02:26.095Z,22.09
2022-10-29T17:04:54.442Z,22.01
2022-10-29T17:07:22.746Z,21.97
2022-10-29T17:09:51.130Z,21.85
2022-10-29T17:12:19.470Z,21.78
2022-10-29T17:14:49.340Z,21.71
2022-10-29T17:17:17.656Z,21.71
2022-10-29T17:19:45.905Z,21.70
2022-10-29T17:22:16.161Z,21.69
2022-10-29T17:24:45.137Z,21.61
2022-10-29T17:27:13.865Z,21.60
2022-10-29T17:29:42.213Z,21.65
2022-10-29T17:32:11.887Z,21.59
2022-10-29T17:34:40.262Z,21.48
2022-10-29T17:37:09.180Z,21.33
2022-10-29T17:39:37.602Z,21.25
2022-10-29T17:42:06.369Z,21.19
2022-10-29T17:44:36.195Z,21.13
2022-10-29T17:47:04.527Z,21.04
2022-10-29T17:49:34.189Z,21.13
2022-10-29T17:52:02.523Z,21.12
2022-10-29T17:54:31.774Z,21.19
2022-10-29T17:57:02.214Z,21.16
2022-10-29T17:59:30.482Z,20.99
2022-10-29T18:01:58.947Z,21.23
2022-10-29T18:04:27.602Z,21.29
2022-10-29T18:06:57.383Z,21.37
2022-10-29T18:09:25.690Z,21.41
2022-10-29T18:11:54.023Z,21.25
2022-10-29T18:14:22.301Z,21.42
2022-10-29T18:16:50.874Z,21.45
2022-10-29T18:19:19.212Z,21.53
2022-10-29T18:21:47.805Z,21.68
2022-10-29T18:24:19.357Z,21.70
2022-10-29T18:26:51.108Z,21.81
2022-10-29T18:29:19.647Z,21.74
2022-10-29T18:31:48.208Z,21.82
2022-10-29T18:34:17.058Z,21.76
2022-10-29T18:36:47.451Z,21.82
2022-10-29T18:39:17.267Z,21.84
2022-10-29T18:41:45.481Z,21.84
2022-10-29T18:44:13.762Z,21.77
2022-10-29T18:46:42.108Z,21.74
2022-10-29T18:49:13.019Z,21.78
2022-10-29T18:51:41.605Z,21.77
2022-10-29T18:54:12.774Z,21.78
2022-10-29T18:56:42.655Z,21.56
2022-10-29T18:59:12.774Z,21.72
2022-10-29T19:01:41.942Z,21.66
2022-10-29T19:04:15.353Z,21.68
2022-10-29T19:06:44.190Z,21.62
2022-10-29T19:09:13.396Z,21.54
2022-10-29T19:11:43.065Z,21.49
2022-10-29T19:14:14.731Z,21.44
2022-10-29T19:16:43.073Z,21.44
2022-10-29T19:19:13.402Z,21.36
2022-10-29T19:21:43.248Z,21.33
2022-10-29T19:24:15.222Z,21.36
2022-10-29T19:26:45.437Z,21.32
2022-10-29T19:29:14.471Z,21.28
2022-10-29T19:31:45.789Z,21.27
2022-10-29T19:34:14.263Z,21.21
2022-10-29T19:36:42.604Z,21.10
2022-10-29T19:39:10.908Z,21.20
2022-10-29T19:41:39.205Z,21.13
2022-10-29T19:44:08.961Z,20.94
2022-10-29T19:46:37.373Z,21.19
2022-10-29T19:49:05.690Z,20.98
2022-10-29T19:51:34.051Z,21.15
2022-10-29T19:54:04.085Z,21.08
2022-10-29T19:56:32.504Z,21.07
2022-10-29T19:59:00.914Z,21.13
2022-10-29T20:01:30.727Z,21.08
2022-10-29T20:03:59.656Z,20.91
2022-10-29T20:06:28.098Z,21.13
2022-10-29T20:08:56.510Z,20.95
2022-10-29T20:11:24.831Z,21.08
2022-10-29T20:13:53.230Z,21.08
2022-10-29T20:16:22.644Z,21.00
2022-10-29T20:18:52.924Z,21.14
2022-10-29T20:21:21.278Z,21.07
2022-10-29T20:23:49.565Z,20.89
2022-10-29T20:26:17.925Z,21.19
2022-10-29T20:28:46.184Z,21.04
2022-10-29T20:31:29.761Z,21.26
2022-10-29T20:34:01.923Z,21.13
2022-10-29T20:36:32.474Z,21.31
2022-10-29T20:39:00.920Z,21.31
2022-10-29T20:41:30.277Z,21.33
2022-10-29T20:44:01.200Z,21.30
2022-10-29T20:46:29.885Z,21.14
2022-10-29T20:49:00.169Z,21.26
2022-10-29T20:51:30.280Z,21.36
2022-10-29T20:53:58.582Z,21.03
2022-10-29T20:56:28.683Z,21.30
2022-10-29T20:58:57.083Z,21.27
2022-10-29T21:01:25.870Z,21.17
2022-10-29T21:03:54.440Z,21.15
2022-10-29T21:06:24.457Z,21.29
2022-10-29T21:08:53.921Z,21.25
2022-10-29T21:11:23.992Z,21.10
2022-10-29T21:13:52.517Z,21.15
2022-10-29T21:16:24.307Z,21.18
2022-10-29T21:18:55.881Z,21.20
2022-10-29T21:21:26.441Z,21.13
2022-10-29T21:23:55.080Z,21.01
2022-10-29T21:26:26.878Z,21.00
2022-10-29T21:28:55.986Z,21.02
2022-10-29T21:31:25.294Z,21.08
2022-10-29T21:33:54.637Z,21.02
2022-10-29T21:36:25.052Z,20.38
2022-10-29T21:38:53.479Z,20.99
2022-10-29T21:41:21.765Z,20.93
2022-10-29T21:43:50.089Z,20.89
2022-10-29T21:46:18.339Z,20.88
2022-10-29T21:48:46.652Z,20.86
2022-10-29T21:51:17.167Z,20.81
2022-10-29T21:53:46.878Z,20.77
2022-10-29T21:56:16.569Z,20.82
2022-10-29T21:58:45.219Z,20.79
2022-10-29T22:01:15.770Z,20.79
2022-10-29T22:03:46.182Z,20.81
2022-10-29T22:06:16.825Z,20.77
2022-10-29T22:08:47.109Z,20.82
2022-10-29T22:11:16.960Z,20.64
2022-10-29T22:13:45.416Z,20.82
2022-10-29T22:16:13.889Z,20.84
2022-10-29T22:18:42.620Z,20.83
2022-10-29T22:21:14.892Z,20.28
2022-10-29T22:23:46.232Z,20.85
2022-10-29T22:26:17.403Z,20.83
2022-10-29T22:28:47.084Z,20.77
2022-10-29T22:31:16.969Z,20.83
2022-10-29T22:33:45.875Z,20.75
2022-10-29T22:36:16.359Z,20.66
2022-10-29T22:38:46.050Z,20.68
2022-10-29T22:41:16.887Z,20.68
2022-10-29T22:43:45.289Z,20.64
2022-10-29T22:46:15.683Z,20.36
2022-10-29T22:48:44.366Z,20.34
2022-10-29T22:51:15.486Z,20.52
2022-10-29T22:53:44.314Z,20.45
2022-10-29T22:56:14.988Z,20.58
2022-10-29T22:58:45.102Z,20.54
2022-10-29T23:01:16.500Z,20.36
2022-10-29T23:03:46.040Z,20.49
2022-10-29T23:06:19.355Z,20.45
2022-10-29T23:08:48.944Z,20.30
2022-10-29T23:11:21.386Z,20.33
2022-10-29T23:13:51.420Z,20.41
2022-10-29T23:16:20.465Z,20.40
2022-10-29T23:18:50.421Z,20.16
2022-10-29T23:21:19.677Z,20.32
2022-10-29T23:23:49.770Z,20.30
2022-10-29T23:26:21.465Z,20.26
2022-10-29T23:28:50.353Z,20.25
2022-10-29T23:31:21.092Z,20.35
2022-10-29T23:33:51.763Z,20.36
2022-10-29T23:36:21.548Z,20.29
2022-10-29T23:38:51.211Z,20.31
2022-10-29T23:41:20.876Z,20.28
2022-10-29T23:43:49.177Z,20.29
2022-10-29T23:46:17.564Z,20.25
2022-10-29T23:48:45.995Z,20.19
2022-10-29T23:51:14.280Z,19.65
2022-10-29T23:53:42.730Z,19.81
2022-10-29T23:56:11.084Z,20.12
2022-10-29T23:58:40.890Z,20.11
